Time;durP1;ratioP1;P1;durP2;ratioP2;P2;SDS_P1;SDS_P2;PMS_P1;PMS_P2;Temp;Humidity;BMP_temperature;BMP_pressure;BME280_temperature;BME280_humidity;BME280_pressure;Samples;Min_cycle;Max_cycle;Signal;HPM_P1;HPM_P2
2022/01/15 00:01:46;;;;;;;40.53;22.65;;;-0.80;99.90;;;;;;4965957;28;20063;-79
2022/01/15 00:04:14;;;;;;;44.45;22.75;;;-0.80;99.90;;;;;;4962289;29;20212;-78
2022/01/15 00:06:40;;;;;;;42.30;23.48;;;-0.70;99.90;;;;;;4963651;28;20062;-79
2022/01/15 00:09:09;;;;;;;40.22;22.15;;;-0.70;99.90;;;;;;4963216;28;20318;-79
2022/01/15 00:11:38;;;;;;;39.83;22.27;;;-0.80;99.90;;;;;;4962773;29;20027;-80
2022/01/15 00:14:13;;;;;;;37.00;21.25;;;-0.70;99.90;;;;;;4946674;29;20026;-80
2022/01/15 00:16:46;;;;;;;38.05;21.85;;;-0.70;99.90;;;;;;4963488;28;20043;-80
2022/01/15 00:19:18;;;;;;;37.65;22.30;;;-0.80;99.90;;;;;;4963249;28;20035;-80
2022/01/15 00:21:44;;;;;;;36.50;21.30;;;-0.80;99.90;;;;;;4962697;29;20034;-80
2022/01/15 00:24:10;;;;;;;38.63;21.52;;;-0.80;99.90;;;;;;4962963;29;20023;-80
2022/01/15 00:26:36;;;;;;;40.97;22.20;;;-0.90;99.90;;;;;;4962671;29;20038;-80
2022/01/15 00:29:03;;;;;;;40.97;22.38;;;-1.00;99.90;;;;;;4946469;29;20209;-80
2022/01/15 00:31:29;;;;;;;33.92;20.60;;;-1.00;99.90;;;;;;4962533;28;20039;-80
2022/01/15 00:33:58;;;;;;;38.50;22.30;;;-0.90;99.90;;;;;;4963315;28;20030;-80
2022/01/15 00:36:26;;;;;;;40.47;22.38;;;-0.90;99.90;;;;;;4963272;28;20029;-80
2022/01/15 00:38:55;;;;;;;42.28;23.90;;;-0.90;99.90;;;;;;4962144;28;20058;-80
2022/01/15 00:41:21;;;;;;;;;;;-0.80;99.90;;;;;;4962571;28;20098;-80
2022/01/15 00:43:50;;;;;;;41.15;23.20;;;-0.80;99.90;;;;;;4963276;28;19954;-80
2022/01/15 00:46:18;;;;;;;41.13;22.95;;;-0.80;99.90;;;;;;4952674;28;20047;-79
2022/01/15 00:48:44;;;;;;;38.83;22.58;;;-0.70;99.90;;;;;;4944265;29;20063;-79
2022/01/15 00:51:18;;;;;;;36.20;19.75;;;-0.70;99.90;;;;;;4946004;29;20083;-81
2022/01/15 00:53:50;;;;;;;35.78;20.52;;;-0.80;99.90;;;;;;4947060;29;20090;-81
2022/01/15 00:56:16;;;;;;;35.25;19.67;;;-0.90;99.90;;;;;;4946154;29;20092;-78
2022/01/15 01:02:31;;;;;;;34.47;20.27;;;-1.10;99.90;;;;;;4927610;29;20187;-80
2022/01/15 01:08:45;;;;;;;36.40;20.90;;;-1.00;99.90;;;;;;4940061;29;20026;-78
2022/01/15 01:11:40;;;;;;;35.45;19.88;;;-0.90;99.90;;;;;;4945384;29;20027;-79
2022/01/15 01:24:32;;;;;;;34.75;20.63;;;-1.00;99.90;;;;;;4928167;29;20028;-79
2022/01/15 01:27:06;;;;;;;34.60;20.17;;;-1.00;99.90;;;;;;4927368;29;20028;-79
2022/01/15 01:32:26;;;;;;;35.67;20.58;;;-1.10;99.90;;;;;;4928453;29;20031;-81
2022/01/15 01:34:53;;;;;;;33.78;19.98;;;-1.10;99.90;;;;;;4943082;29;20035;-78
2022/01/15 01:37:29;;;;;;;36.72;19.90;;;-1.10;99.90;;;;;;4942501;29;20068;-80
2022/01/15 01:40:13;;;;;;;36.65;20.02;;;-1.10;99.90;;;;;;4942517;29;20052;-79
2022/01/15 01:42:43;;;;;;;35.30;20.08;;;-1.00;99.90;;;;;;4927901;29;20091;-79
2022/01/15 01:45:14;;;;;;;33.10;19.95;;;-1.10;99.90;;;;;;4927457;29;20030;-80
2022/01/15 01:47:41;;;;;;;31.35;20.23;;;-1.10;99.90;;;;;;4926803;29;20040;-79
2022/01/15 01:50:23;;;;;;;34.47;20.07;;;-1.10;99.90;;;;;;4926811;29;20023;-79
2022/01/15 01:52:52;;;;;;;35.92;19.60;;;-1.00;99.90;;;;;;4928127;29;20051;-79
2022/01/15 01:55:22;;;;;;;35.00;20.58;;;-1.20;99.90;;;;;;4927281;29;20024;-79
2022/01/15 01:57:49;;;;;;;34.78;20.23;;;-1.20;99.90;;;;;;4927664;29;20331;-80
2022/01/15 02:00:16;;;;;;;35.13;20.30;;;-1.20;99.90;;;;;;4942008;29;20211;-79
2022/01/15 02:02:49;;;;;;;33.70;19.83;;;-1.00;99.90;;;;;;4925726;29;20036;-79
2022/01/15 02:05:16;;;;;;;31.42;19.55;;;-0.90;99.90;;;;;;4925893;29;20366;-78
2022/01/15 02:07:43;;;;;;;36.03;19.73;;;-1.10;99.90;;;;;;4930229;29;20295;-79
2022/01/15 02:10:15;;;;;;;33.88;18.88;;;-1.20;99.90;;;;;;4945343;29;20032;-79
2022/01/15 02:12:45;;;;;;;35.75;19.95;;;-1.40;99.90;;;;;;4946612;29;20051;-78
2022/01/15 02:15:20;;;;;;;34.78;19.60;;;-1.40;99.90;;;;;;4948259;29;20059;-80
2022/01/15 02:17:47;;;;;;;37.67;20.48;;;-1.40;99.90;;;;;;4953718;29;20047;-80
2022/01/15 02:25:52;;;;;;;;;;;-1.30;99.90;;;;;;4947050;29;20075;-81
2022/01/15 02:28:21;;;;;;;32.53;18.63;;;-1.20;99.90;;;;;;4945757;29;19907;-81
2022/01/15 02:31:09;;;;;;;34.28;19.60;;;-1.10;99.90;;;;;;4946458;29;20028;-78
2022/01/15 02:33:35;;;;;;;;;;;-1.00;99.90;;;;;;4944748;29;20034;-78
2022/01/15 02:36:04;;;;;;;33.83;19.50;;;-1.10;99.90;;;;;;4944945;29;19969;-80
2022/01/15 02:38:33;;;;;;;34.13;19.48;;;-1.10;99.90;;;;;;4946878;29;20051;-81
2022/01/15 02:40:58;;;;;;;35.70;20.08;;;-1.00;99.90;;;;;;4963697;29;20031;-81
2022/01/15 02:43:31;;;;;;;33.28;19.58;;;-1.00;99.90;;;;;;4947031;29;20023;-81
2022/01/15 02:46:00;;;;;;;31.67;18.73;;;-1.00;99.90;;;;;;4964913;29;20065;-78
2022/01/15 02:48:33;;;;;;;31.92;19.23;;;-1.10;99.90;;;;;;4963026;29;20027;-81
2022/01/15 02:50:58;;;;;;;34.00;20.55;;;-1.10;99.90;;;;;;4931710;29;20054;-81
2022/01/15 02:53:24;;;;;;;37.65;20.73;;;-1.20;99.90;;;;;;4931704;29;20031;-80
2022/01/15 02:55:53;;;;;;;32.45;19.80;;;-1.20;99.90;;;;;;4947743;29;20031;-79
2022/01/15 02:58:23;;;;;;;35.10;19.55;;;-1.30;99.90;;;;;;4947206;29;20293;-80
2022/01/15 03:01:08;;;;;;;33.45;20.10;;;-1.40;99.90;;;;;;4950470;29;20038;-80
2022/01/15 03:03:34;;;;;;;33.22;19.10;;;-1.40;99.90;;;;;;4963984;29;20031;-79
2022/01/15 03:16:45;;;;;;;32.72;19.80;;;-1.60;99.90;;;;;;4964291;29;20328;-78
2022/01/15 03:19:10;;;;;;;31.63;19.27;;;-1.70;99.90;;;;;;4947293;29;20061;-78
2022/01/15 03:21:36;;;;;;;35.00;19.50;;;-1.60;99.90;;;;;;4963818;29;20026;-78
2022/01/15 03:24:02;;;;;;;31.73;19.70;;;-1.60;99.90;;;;;;4947163;29;20031;-80
2022/01/15 03:26:28;;;;;;;38.72;20.98;;;-1.50;99.90;;;;;;4930934;29;20074;-79
2022/01/15 03:28:54;;;;;;;36.42;20.88;;;-1.40;99.90;;;;;;4964570;29;20031;-79
2022/01/15 03:31:20;;;;;;;35.22;21.15;;;-1.30;99.90;;;;;;4931018;29;20147;-79
2022/01/15 03:33:45;;;;;;;34.67;20.00;;;-1.20;99.90;;;;;;4962980;29;20041;-78
2022/01/15 03:36:11;;;;;;;30.95;19.60;;;-1.30;99.90;;;;;;4964113;29;20039;-79
2022/01/15 03:38:37;;;;;;;34.00;19.23;;;-1.30;99.90;;;;;;4946172;29;20287;-81
2022/01/15 03:41:03;;;;;;;34.05;19.60;;;-1.40;99.90;;;;;;4946825;29;20077;-79
2022/01/15 03:43:29;;;;;;;34.15;19.08;;;-1.40;99.90;;;;;;4963477;29;20031;-79
2022/01/15 03:46:42;;;;;;;32.38;19.73;;;-1.50;99.90;;;;;;4947029;29;20031;-80
2022/01/15 03:52:55;;;;;;;34.85;20.65;;;-1.30;99.90;;;;;;4964040;29;20091;-80
2022/01/15 03:55:22;;;;;;;32.90;19.65;;;-1.50;99.90;;;;;;4946482;29;20050;-79
2022/01/15 03:57:48;;;;;;;31.35;19.35;;;-1.60;99.90;;;;;;4930954;29;20094;-80
2022/01/15 04:00:20;;;;;;;36.47;20.02;;;-1.70;99.90;;;;;;4946777;29;20038;-79
2022/01/15 04:02:48;;;;;;;37.78;21.20;;;-1.60;99.90;;;;;;4947104;29;20031;-80
2022/01/15 04:05:14;;;;;;;35.13;19.55;;;-1.60;99.90;;;;;;4946759;29;20019;-79
2022/01/15 04:07:40;;;;;;;35.85;20.77;;;-1.60;99.90;;;;;;4963588;29;20038;-80
2022/01/15 04:10:08;;;;;;;35.17;20.10;;;-1.60;99.90;;;;;;4931177;29;20039;-80
2022/01/15 04:12:35;;;;;;;31.92;19.75;;;-1.60;99.90;;;;;;4930693;29;20099;-80
2022/01/15 04:15:01;;;;;;;31.27;19.27;;;-1.70;99.90;;;;;;4946619;29;20039;-81
2022/01/15 04:17:26;;;;;;;34.10;19.05;;;-1.70;99.90;;;;;;4946037;29;20035;-78
2022/01/15 04:19:52;;;;;;;32.22;19.98;;;-1.70;99.90;;;;;;4946527;29;20063;-81
2022/01/15 04:22:19;;;;;;;35.72;20.80;;;-1.70;99.90;;;;;;4946456;29;20019;-81
2022/01/15 04:24:44;;;;;;;32.25;19.35;;;-1.70;99.90;;;;;;4947562;29;20094;-80
2022/01/15 04:27:10;;;;;;;30.58;19.23;;;-1.80;99.90;;;;;;4934542;29;20027;-82
2022/01/15 04:29:37;;;;;;;33.75;18.90;;;-1.80;99.90;;;;;;4950970;29;20027;-79
2022/01/15 04:32:03;;;;;;;34.80;20.10;;;-1.80;99.90;;;;;;4957079;29;20027;-80
2022/01/15 04:34:30;;;;;;;34.08;19.42;;;-1.80;99.90;;;;;;4934968;29;20023;-79
2022/01/15 04:37:15;;;;;;;35.65;20.63;;;-1.70;99.90;;;;;;4934613;29;20034;-80
2022/01/15 04:39:42;;;;;;;39.38;20.70;;;-1.50;99.90;;;;;;4949335;29;20070;-80
2022/01/15 04:42:09;;;;;;;34.42;19.98;;;-1.50;99.90;;;;;;4950382;29;20034;-80
2022/01/15 04:44:35;;;;;;;34.72;19.75;;;-1.70;99.90;;;;;;4966786;29;20019;-79
2022/01/15 04:47:04;;;;;;;35.40;20.73;;;-1.70;99.90;;;;;;4950074;29;20042;-79
2022/01/15 04:49:31;;;;;;;38.70;19.85;;;-1.60;99.90;;;;;;4966581;29;20090;-81
2022/01/15 04:51:57;;;;;;;35.45;20.75;;;-1.70;99.90;;;;;;4949941;29;20035;-82
2022/01/15 04:54:23;;;;;;;38.78;21.10;;;-1.60;99.90;;;;;;4949835;29;20035;-81
2022/01/15 04:56:49;;;;;;;34.72;20.25;;;-1.50;99.90;;;;;;4967188;29;20025;-79
2022/01/15 04:59:15;;;;;;;37.33;21.55;;;-1.60;99.90;;;;;;4934037;29;20082;-80
2022/01/15 05:01:40;;;;;;;37.17;20.88;;;-1.50;99.90;;;;;;4949347;29;20035;-79
2022/01/15 05:04:06;;;;;;;33.67;20.55;;;-1.60;99.90;;;;;;4966813;29;20213;-80
2022/01/15 05:06:33;;;;;;;36.20;20.63;;;-1.60;99.90;;;;;;4949316;29;20025;-79
2022/01/15 05:09:05;;;;;;;33.72;19.13;;;-1.70;99.90;;;;;;4966680;29;20126;-80
2022/01/15 05:14:29;;;;;;;35.90;20.75;;;-1.60;99.90;;;;;;4963938;29;20043;-78
2022/01/15 05:16:55;;;;;;;34.03;20.23;;;-1.50;99.90;;;;;;4933303;29;20135;-79
2022/01/15 05:19:21;;;;;;;34.00;19.85;;;-1.40;99.90;;;;;;4933033;29;20035;-79
2022/01/15 05:21:47;;;;;;;33.92;19.27;;;-1.40;99.90;;;;;;4932756;29;20234;-79
2022/01/15 05:24:12;;;;;;;30.60;19.05;;;-1.30;99.90;;;;;;4933081;29;20031;-79
2022/01/15 05:26:38;;;;;;;29.42;18.95;;;-1.50;99.90;;;;;;4965823;29;20330;-78
2022/01/15 05:29:04;;;;;;;33.80;18.88;;;-1.40;99.90;;;;;;4948864;29;20031;-81
2022/01/15 05:31:30;;;;;;;34.38;19.83;;;-1.40;99.90;;;;;;4932703;29;20094;-79
2022/01/15 05:33:56;;;;;;;32.25;18.75;;;-1.40;99.90;;;;;;4949032;29;20031;-80
2022/01/15 05:36:22;;;;;;;29.83;18.00;;;-1.50;99.90;;;;;;4948221;29;20023;-81
2022/01/15 05:38:48;;;;;;;31.80;18.50;;;-1.50;99.90;;;;;;4948296;29;20118;-80
2022/01/15 05:41:13;;;;;;;33.17;17.67;;;-1.50;99.90;;;;;;4933372;29;20039;-80
2022/01/15 05:43:39;;;;;;;28.48;17.60;;;-1.40;99.90;;;;;;4948192;29;20074;-78
2022/01/15 05:46:05;;;;;;;30.30;18.25;;;-1.50;99.90;;;;;;4948699;29;20069;-79
2022/01/15 05:48:31;;;;;;;29.35;17.58;;;-1.50;99.90;;;;;;4932406;29;20157;-78
2022/01/15 05:50:57;;;;;;;32.63;18.05;;;-1.60;99.90;;;;;;4932854;29;20401;-79
2022/01/15 05:53:22;;;;;;;28.85;17.67;;;-1.50;99.90;;;;;;4965844;29;20031;-79
2022/01/15 05:55:48;;;;;;;31.33;16.42;;;-1.60;99.90;;;;;;4932343;29;20067;-80
2022/01/15 05:58:14;;;;;;;31.73;17.65;;;-1.60;99.90;;;;;;4965520;29;20098;-80
2022/01/15 06:00:43;;;;;;;32.95;18.05;;;-1.60;99.90;;;;;;4964158;29;20031;-80
2022/01/15 06:03:08;;;;;;;29.42;16.67;;;-1.70;99.90;;;;;;4953004;28;20035;-80
2022/01/15 06:05:34;;;;;;;30.90;17.67;;;-1.70;99.90;;;;;;4943664;29;20075;-82
2022/01/15 06:08:00;;;;;;;30.00;17.40;;;-1.70;99.90;;;;;;4935469;29;20038;-80
2022/01/15 06:10:26;;;;;;;29.02;16.65;;;-1.60;99.90;;;;;;4947957;29;20023;-80
2022/01/15 06:12:51;;;;;;;33.53;18.20;;;-1.60;99.90;;;;;;4948130;29;20066;-81
2022/01/15 06:15:38;;;;;;;32.53;17.33;;;-1.60;99.90;;;;;;4964644;29;20182;-79
2022/01/15 06:18:04;;;;;;;32.47;18.52;;;-1.70;99.90;;;;;;4963156;29;20221;-78
2022/01/15 06:20:30;;;;;;;31.92;17.00;;;-1.80;99.90;;;;;;4944392;29;20041;-81
2022/01/15 06:22:56;;;;;;;29.15;16.90;;;-1.70;99.90;;;;;;4944691;29;20035;-80
2022/01/15 06:25:22;;;;;;;30.13;16.58;;;-1.80;99.90;;;;;;4929107;29;20039;-81
2022/01/15 06:27:48;;;;;;;30.90;18.27;;;-1.70;99.90;;;;;;4944436;29;20036;-80
2022/01/15 06:30:14;;;;;;;29.55;16.55;;;-1.70;99.90;;;;;;4944323;29;20331;-79
2022/01/15 06:32:39;;;;;;;29.38;17.02;;;-1.70;99.90;;;;;;4945591;29;20047;-79
2022/01/15 06:35:10;;;;;;;30.60;16.30;;;-1.80;99.90;;;;;;4947201;29;20015;-80
2022/01/15 06:37:36;;;;;;;30.08;17.13;;;-1.80;99.90;;;;;;4979177;28;20229;-79
2022/01/15 06:40:05;;;;;;;32.85;16.75;;;-1.70;99.90;;;;;;4979711;28;20199;-78
2022/01/15 06:42:31;;;;;;;32.55;17.33;;;-1.80;99.90;;;;;;4979572;28;20094;-80
2022/01/15 06:44:57;;;;;;;27.80;16.65;;;-1.80;99.90;;;;;;4963604;28;20027;-79
2022/01/15 06:47:23;;;;;;;29.88;16.65;;;-1.80;99.90;;;;;;4962523;28;20039;-80
2022/01/15 06:49:48;;;;;;;31.55;17.45;;;-1.70;99.90;;;;;;4962756;28;20042;-80
2022/01/15 06:52:15;;;;;;;28.80;16.88;;;-1.80;99.90;;;;;;4979678;28;20202;-78
2022/01/15 06:54:40;;;;;;;26.83;15.82;;;-1.70;99.90;;;;;;4963170;28;20203;-80
2022/01/15 06:57:09;;;;;;;30.15;16.67;;;-1.70;99.90;;;;;;4964475;29;20283;-79
2022/01/15 06:59:44;;;;;;;32.78;17.27;;;-1.70;99.90;;;;;;4962915;28;20397;-80
2022/01/15 07:02:11;;;;;;;28.63;16.08;;;-1.70;99.90;;;;;;4963891;28;20035;-81
2022/01/15 07:04:37;;;;;;;25.58;15.77;;;-1.70;99.90;;;;;;4951685;28;20195;-79
2022/01/15 07:07:03;;;;;;;28.45;16.13;;;-1.80;99.90;;;;;;4945126;29;20066;-79
2022/01/15 07:09:29;;;;;;;29.30;15.30;;;-1.80;99.90;;;;;;4961407;29;20120;-80
2022/01/15 07:11:56;;;;;;;27.58;16.83;;;-1.80;99.90;;;;;;4962936;29;20059;-79
2022/01/15 07:14:22;;;;;;;24.73;16.17;;;-1.80;99.90;;;;;;4963090;28;20027;-81
2022/01/15 07:16:48;;;;;;;28.23;17.67;;;-1.80;99.90;;;;;;4977919;28;20047;-79
2022/01/15 07:19:13;;;;;;;28.30;17.45;;;-1.80;99.90;;;;;;4947318;29;20374;-78
2022/01/15 07:21:39;;;;;;;31.45;17.98;;;-1.80;99.90;;;;;;4962687;28;20034;-80
2022/01/15 07:24:06;;;;;;;31.05;17.55;;;-1.80;99.90;;;;;;4962591;29;20023;-79
2022/01/15 07:26:31;;;;;;;27.52;15.75;;;-1.90;99.90;;;;;;4963895;28;20031;-80
2022/01/15 07:28:58;;;;;;;29.95;16.92;;;-1.90;99.90;;;;;;4964065;28;20042;-81
2022/01/15 07:31:24;;;;;;;26.58;16.48;;;-1.70;99.90;;;;;;4962563;28;20059;-79
2022/01/15 07:33:50;;;;;;;29.30;17.92;;;-1.60;99.90;;;;;;4962765;29;20231;-78
2022/01/15 07:36:18;;;;;;;27.58;17.10;;;-1.70;99.90;;;;;;4962699;28;20034;-79
2022/01/15 07:38:43;;;;;;;29.95;17.50;;;-1.60;99.90;;;;;;4978643;28;20063;-78
2022/01/15 07:41:12;;;;;;;31.42;17.27;;;-1.60;99.90;;;;;;4964263;29;20032;-79
2022/01/15 07:43:39;;;;;;;27.52;16.65;;;-1.50;99.90;;;;;;4962453;29;20077;-79
2022/01/15 07:46:05;;;;;;;30.02;17.42;;;-1.40;99.90;;;;;;4978371;28;20062;-78
2022/01/15 07:48:50;;;;;;;26.15;16.88;;;-1.40;99.90;;;;;;4976158;28;20027;-78
2022/01/15 07:51:16;;;;;;;28.77;17.38;;;-1.40;99.90;;;;;;4964121;29;20054;-79
2022/01/15 07:53:42;;;;;;;28.88;16.75;;;-1.30;99.90;;;;;;4961700;28;20026;-79
2022/01/15 07:56:07;;;;;;;27.70;17.25;;;-1.30;99.90;;;;;;4962825;28;20225;-79
2022/01/15 07:58:36;;;;;;;30.98;17.92;;;-1.30;99.90;;;;;;4961604;28;20118;-79
2022/01/15 08:01:02;;;;;;;27.55;16.60;;;-1.20;99.90;;;;;;4977648;28;20051;-79
2022/01/15 08:03:28;;;;;;;29.10;17.67;;;-1.20;99.90;;;;;;4963708;29;20026;-79
2022/01/15 08:05:54;;;;;;;29.25;18.00;;;-1.10;99.90;;;;;;4946256;29;20027;-78
2022/01/15 08:08:20;;;;;;;31.73;18.30;;;-1.10;99.90;;;;;;4964065;29;20050;-81
2022/01/15 08:10:45;;;;;;;31.38;18.15;;;-1.00;99.90;;;;;;4946711;29;20318;-79
2022/01/15 08:13:14;;;;;;;30.85;17.25;;;-1.00;99.90;;;;;;4978975;28;20039;-79
2022/01/15 08:16:04;;;;;;;29.30;17.55;;;-1.00;99.90;;;;;;4977760;28;20336;-78
2022/01/15 08:18:39;;;;;;;28.45;17.95;;;-0.90;99.90;;;;;;4963678;28;20341;-79
2022/01/15 08:21:06;;;;;;;31.17;18.83;;;-0.80;99.90;;;;;;4962411;29;20031;-79
2022/01/15 08:23:59;;;;;;;32.00;18.20;;;-0.70;99.90;;;;;;4962848;29;20168;-80
2022/01/15 08:26:25;;;;;;;31.13;18.60;;;-0.70;99.90;;;;;;4978682;28;20059;-78
2022/01/15 08:28:51;;;;;;;27.10;16.27;;;-0.70;99.90;;;;;;4963125;29;20042;-79
2022/01/15 08:31:17;;;;;;;29.52;16.85;;;-0.60;99.90;;;;;;4963263;28;20039;-79
2022/01/15 08:33:42;;;;;;;29.52;18.13;;;-0.30;99.90;;;;;;4978259;28;20033;-79
2022/01/15 08:36:09;;;;;;;32.33;19.17;;;-0.30;99.90;;;;;;4962929;29;20019;-78
2022/01/15 08:38:35;;;;;;;30.35;18.63;;;-0.30;99.90;;;;;;4962185;29;20361;-79
2022/01/15 08:41:04;;;;;;;29.98;18.23;;;-0.30;99.90;;;;;;4962301;29;20034;-80
2022/01/15 08:43:32;;;;;;;33.03;19.33;;;-0.20;99.90;;;;;;4962163;28;20027;-79
2022/01/15 08:45:58;;;;;;;31.05;19.25;;;-0.20;99.90;;;;;;4977247;28;20107;-78
2022/01/15 08:48:24;;;;;;;32.05;19.17;;;-0.10;99.90;;;;;;4962231;28;20035;-79
2022/01/15 08:50:50;;;;;;;32.58;18.50;;;-0.10;99.90;;;;;;4963098;29;20027;-80
2022/01/15 08:53:17;;;;;;;32.13;18.77;;;-0.10;99.90;;;;;;4962432;29;20098;-80
2022/01/15 08:55:46;;;;;;;31.60;18.88;;;0.00;99.90;;;;;;4945690;29;20027;-79
2022/01/15 08:58:12;;;;;;;29.08;19.17;;;0.10;99.90;;;;;;4943676;29;20032;-79
2022/01/15 09:00:37;;;;;;;34.13;19.25;;;0.20;99.90;;;;;;4951066;28;20111;-80
2022/01/15 09:03:06;;;;;;;32.08;18.63;;;0.30;99.90;;;;;;4944500;29;20032;-79
2022/01/15 09:05:57;;;;;;;30.60;18.63;;;0.30;99.90;;;;;;4962059;29;20031;-78
2022/01/15 09:08:24;;;;;;;29.13;17.58;;;0.30;99.90;;;;;;4961770;28;20035;-80
2022/01/15 09:10:54;;;;;;;32.50;18.70;;;0.40;99.90;;;;;;4959701;29;20187;-80
2022/01/15 09:13:20;;;;;;;31.38;19.45;;;0.40;99.90;;;;;;4966614;29;20031;-79
2022/01/15 09:15:52;;;;;;;29.60;18.45;;;0.40;99.90;;;;;;4964006;28;20241;-79
2022/01/15 09:18:24;;;;;;;28.58;19.05;;;0.40;99.90;;;;;;4965068;28;20254;-79
2022/01/15 09:20:52;;;;;;;30.60;18.38;;;0.50;99.90;;;;;;4949178;29;20155;-79
2022/01/15 09:23:19;;;;;;;29.58;19.33;;;0.60;99.90;;;;;;4966498;29;20019;-79
2022/01/15 09:25:49;;;;;;;30.77;18.67;;;0.70;99.90;;;;;;4965868;29;20054;-79
2022/01/15 09:31:06;;;;;;;31.05;18.10;;;0.80;99.90;;;;;;4966084;28;20059;-80
2022/01/15 09:33:36;;;;;;;32.92;19.70;;;0.90;99.90;;;;;;4957528;29;20030;-79
2022/01/15 09:36:05;;;;;;;33.25;20.05;;;0.90;99.90;;;;;;4935554;29;20222;-78
2022/01/15 09:38:32;;;;;;;32.88;20.60;;;1.00;99.90;;;;;;4935050;29;20059;-79
2022/01/15 09:40:58;;;;;;;33.45;20.10;;;0.90;99.90;;;;;;4932559;29;20267;-80
2022/01/15 09:43:24;;;;;;;32.53;20.13;;;1.00;99.90;;;;;;4966099;29;20053;-78
2022/01/15 09:46:02;;;;;;;32.33;19.45;;;1.00;99.90;;;;;;4954188;28;20085;-79
2022/01/15 09:48:30;;;;;;;31.27;19.53;;;1.00;99.90;;;;;;4985348;28;20146;-79
2022/01/15 09:51:00;;;;;;;34.60;20.45;;;1.00;99.90;;;;;;4985002;28;20414;-78
2022/01/15 09:53:26;;;;;;;31.02;19.60;;;1.00;99.90;;;;;;4985200;28;20026;-80
2022/01/15 09:55:52;;;;;;;34.22;20.52;;;1.10;99.90;;;;;;4967698;28;20023;-79
2022/01/15 09:58:18;;;;;;;31.95;20.75;;;1.20;99.90;;;;;;4952190;28;20038;-78
2022/01/15 10:00:45;;;;;;;36.28;21.00;;;1.00;99.90;;;;;;4985103;28;20054;-79
2022/01/15 10:03:12;;;;;;;32.78;19.48;;;1.10;99.90;;;;;;4968627;28;20019;-79
2022/01/15 10:05:38;;;;;;;34.47;19.85;;;1.10;99.90;;;;;;4968522;28;20030;-78
2022/01/15 10:08:10;;;;;;;33.15;20.52;;;1.20;99.90;;;;;;4969782;28;20034;-79
2022/01/15 10:10:40;;;;;;;33.05;19.25;;;1.30;99.90;;;;;;4972997;28;20033;-81
2022/01/15 10:13:20;;;;;;;30.60;19.30;;;1.30;99.90;;;;;;4982317;28;20057;-80
2022/01/15 10:16:07;;;;;;;31.85;18.77;;;1.40;99.90;;;;;;4964296;28;20046;-80
2022/01/15 10:18:42;;;;;;;31.70;19.10;;;1.50;99.90;;;;;;4964073;29;20106;-78
2022/01/15 10:21:16;;;;;;;31.27;18.67;;;1.50;99.90;;;;;;4944664;29;20042;-80
2022/01/15 10:23:50;;;;;;;29.17;18.20;;;1.60;99.90;;;;;;4927210;29;20050;-80
2022/01/15 10:26:24;;;;;;;33.63;19.50;;;1.70;99.90;;;;;;4928474;29;20123;-79
2022/01/15 10:28:58;;;;;;;28.35;18.73;;;1.80;99.90;;;;;;4928216;29;20061;-79
2022/01/15 10:31:32;;;;;;;31.83;19.40;;;1.80;99.90;;;;;;4949419;28;20319;-79
2022/01/15 10:34:18;;;;;;;33.20;19.42;;;2.00;99.90;;;;;;4946973;29;20086;-78
2022/01/15 10:36:49;;;;;;;30.50;19.33;;;2.00;99.90;;;;;;4962722;29;20035;-78
2022/01/15 10:39:23;;;;;;;30.65;19.42;;;2.10;99.90;;;;;;4948899;29;20066;-78
2022/01/15 10:41:49;;;;;;;32.38;18.38;;;2.20;99.90;;;;;;4942776;29;20168;-77
2022/01/15 10:44:50;;;;;;;32.03;20.05;;;2.40;99.90;;;;;;4942990;29;20047;-78
2022/01/15 10:47:28;;;;;;;31.20;18.83;;;2.50;99.90;;;;;;4904485;29;20125;-78
2022/01/15 10:50:30;;;;;;;29.60;18.83;;;2.70;99.90;;;;;;4951529;29;20056;-77
2022/01/15 10:53:07;;;;;;;32.70;19.08;;;3.10;99.90;;;;;;4957589;28;20139;-77
2022/01/15 10:55:45;;;;;;;31.13;19.08;;;3.50;99.90;;;;;;4971275;28;20038;-78
2022/01/15 10:58:12;;;;;;;32.80;19.17;;;4.00;99.90;;;;;;4970624;28;20345;-78
2022/01/15 11:00:45;;;;;;;32.20;18.92;;;4.60;99.90;;;;;;4955544;28;20384;-78
2022/01/15 11:03:16;;;;;;;30.73;18.10;;;5.10;99.90;;;;;;4978899;28;20086;-78
2022/01/15 11:05:50;;;;;;;27.15;17.45;;;5.40;99.90;;;;;;4971634;28;20030;-77
2022/01/15 11:08:28;;;;;;;24.35;17.20;;;5.70;99.90;;;;;;4970525;28;20053;-76
2022/01/15 11:11:03;;;;;;;24.52;15.98;;;6.30;99.90;;;;;;4963251;29;20066;-76
2022/01/15 11:13:34;;;;;;;22.27;15.50;;;7.00;99.90;;;;;;4963674;28;20050;-76
2022/01/15 11:16:09;;;;;;;23.65;15.02;;;7.30;99.90;;;;;;4962871;28;20194;-77
2022/01/15 11:18:40;;;;;;;22.98;15.80;;;7.90;99.90;;;;;;4963844;29;20043;-78
2022/01/15 11:21:13;;;;;;;21.35;16.33;;;8.20;99.90;;;;;;4962789;29;20035;-77
2022/01/15 11:23:45;;;;;;;21.38;14.63;;;8.60;99.90;;;;;;4979607;28;20031;-79
2022/01/15 11:26:12;;;;;;;19.45;14.48;;;9.20;99.90;;;;;;4981498;28;20134;-77
2022/01/15 11:28:38;;;;;;;18.52;14.50;;;9.60;99.90;;;;;;4982914;28;20027;-79
2022/01/15 11:31:10;;;;;;;20.30;15.45;;;9.90;99.90;;;;;;4978911;28;20070;-78
2022/01/15 11:33:45;;;;;;;19.85;14.13;;;10.30;99.90;;;;;;4964861;28;20031;-78
2022/01/15 11:36:35;;;;;;;19.80;14.60;;;10.90;99.70;;;;;;4982084;28;20038;-79
2022/01/15 11:39:06;;;;;;;18.02;14.18;;;11.20;98.90;;;;;;4919850;29;1208630;-78
2022/01/15 11:41:31;;;;;;;18.05;14.68;;;11.60;97.70;;;;;;4978314;28;20035;-77
2022/01/15 11:44:02;;;;;;;18.38;13.63;;;11.90;97.50;;;;;;4952083;29;20066;-77
2022/01/15 11:46:43;;;;;;;19.30;14.02;;;12.10;96.60;;;;;;4944113;29;20298;-78
2022/01/15 11:49:23;;;;;;;19.17;14.23;;;12.20;96.30;;;;;;4962039;29;20043;-79
2022/01/15 11:52:12;;;;;;;19.13;13.93;;;12.90;95.30;;;;;;4963973;29;20035;-79
2022/01/15 11:54:40;;;;;;;19.58;14.73;;;13.30;94.80;;;;;;4963652;29;20082;-79
2022/01/15 11:57:21;;;;;;;18.85;14.18;;;13.70;93.80;;;;;;4944223;29;20053;-79
2022/01/15 11:59:48;;;;;;;17.33;13.77;;;13.60;93.60;;;;;;4944032;29;20130;-78
2022/01/15 12:02:36;;;;;;;19.13;14.52;;;13.40;93.40;;;;;;4942615;29;20047;-78
2022/01/15 12:05:17;;;;;;;18.00;14.57;;;13.50;93.30;;;;;;4956197;29;20028;-80
2022/01/15 12:07:44;;;;;;;17.45;15.02;;;13.70;92.90;;;;;;4959985;29;20035;-78
2022/01/15 12:10:12;;;;;;;18.65;14.27;;;14.20;92.50;;;;;;4926925;29;20047;-78
2022/01/15 12:12:43;;;;;;;18.77;14.27;;;14.70;92.00;;;;;;4953635;29;20042;-79
2022/01/15 12:15:17;;;;;;;16.90;13.63;;;14.70;91.20;;;;;;4978015;28;20028;-79
2022/01/15 12:17:54;;;;;;;16.73;13.65;;;14.60;90.90;;;;;;4963484;28;20323;-77
2022/01/15 12:20:25;;;;;;;16.58;13.85;;;15.40;90.90;;;;;;4946875;28;20094;-78
2022/01/15 12:22:54;;;;;;;16.55;14.20;;;15.80;89.40;;;;;;4954284;29;20055;-78
2022/01/15 12:25:25;;;;;;;17.45;13.57;;;15.70;88.80;;;;;;4977061;28;20016;-78
2022/01/15 12:28:07;;;;;;;18.02;14.50;;;16.00;87.90;;;;;;4952653;29;20050;-78
2022/01/15 12:30:48;;;;;;;17.55;14.68;;;15.70;87.90;;;;;;4944319;29;20175;-78
2022/01/15 12:33:18;;;;;;;17.42;14.18;;;16.00;88.40;;;;;;4950494;29;20335;-78
2022/01/15 12:35:51;;;;;;;17.55;13.88;;;16.10;87.10;;;;;;4962440;29;20118;-79
2022/01/15 12:38:27;;;;;;;17.35;14.00;;;16.00;86.40;;;;;;4944548;29;20043;-79
2022/01/15 12:41:06;;;;;;;19.13;14.77;;;15.80;86.50;;;;;;4926816;29;20164;-78
2022/01/15 12:43:37;;;;;;;18.20;14.93;;;15.70;86.30;;;;;;4943266;29;20035;-78
2022/01/15 12:46:06;;;;;;;18.55;14.30;;;15.80;86.80;;;;;;4961510;28;20292;-78
2022/01/15 12:48:34;;;;;;;16.15;14.02;;;15.90;85.80;;;;;;4966864;28;20046;-79
2022/01/15 12:51:06;;;;;;;17.83;14.70;;;15.90;85.60;;;;;;4966787;28;20027;-78
2022/01/15 12:53:43;;;;;;;18.30;15.88;;;15.40;86.20;;;;;;4966417;28;20199;-78
2022/01/15 12:56:12;;;;;;;19.00;15.68;;;14.70;87.20;;;;;;4966694;28;20073;-80
2022/01/15 12:58:41;;;;;;;22.77;16.55;;;14.70;86.90;;;;;;4963993;29;20044;-79
2022/01/15 13:01:10;;;;;;;22.80;17.33;;;13.90;88.90;;;;;;4963199;28;20333;-79
2022/01/15 13:03:39;;;;;;;24.35;18.10;;;12.90;90.30;;;;;;4967008;28;20023;-78
2022/01/15 13:06:06;;;;;;;23.33;16.88;;;12.20;91.70;;;;;;4964895;28;20043;-79
2022/01/15 13:08:38;;;;;;;22.67;17.60;;;11.90;91.70;;;;;;4965624;29;20050;-77
2022/01/15 13:11:57;;;;;;;22.48;17.55;;;12.10;92.10;;;;;;4966551;28;20023;-79
2022/01/15 13:14:37;;;;;;;26.50;18.15;;;12.10;91.90;;;;;;4966360;29;20095;-79
2022/01/15 13:17:04;;;;;;;24.77;18.88;;;11.80;92.50;;;;;;4965888;28;20229;-79
2022/01/15 13:19:37;;;;;;;25.13;19.17;;;11.60;92.60;;;;;;4981106;28;20023;-79
2022/01/15 13:22:03;;;;;;;23.35;17.38;;;10.80;93.60;;;;;;4963890;29;20322;-79
2022/01/15 13:24:29;;;;;;;23.33;17.63;;;10.60;94.30;;;;;;4966395;28;20111;-78
2022/01/15 13:27:51;;;;;;;23.65;17.05;;;10.70;94.60;;;;;;4979993;28;20047;-77
2022/01/15 13:30:19;;;;;;;23.52;16.83;;;10.20;95.40;;;;;;4965601;28;20027;-78
2022/01/15 13:32:57;;;;;;;23.55;17.58;;;10.20;95.70;;;;;;4970889;28;20302;-77